createdAt,value
2023-05-08T00:01:51.975Z,97504.25
2023-05-08T00:04:00.426Z,97499.88
2023-05-08T00:06:12.265Z,97503.53
2023-05-08T00:08:20.564Z,97503.31
2023-05-08T00:10:28.649Z,97507.22
2023-05-08T00:12:36.881Z,97498.94
2023-05-08T00:14:44.710Z,97496.28
2023-05-08T00:16:52.587Z,97497.81
2023-05-08T00:19:00.781Z,97491.25
2023-05-08T00:21:11.451Z,97492.00
2023-05-08T00:23:19.374Z,97495.09
2023-05-08T00:25:27.864Z,97497.53
2023-05-08T00:27:36.407Z,97498.84
2023-05-08T00:29:44.676Z,97505.03
2023-05-08T00:31:52.811Z,97502.16
2023-05-08T00:34:01.019Z,97500.84
2023-05-08T00:36:12.716Z,97510.34
2023-05-08T00:38:20.976Z,97502.47
2023-05-08T00:40:29.227Z,97500.97
2023-05-08T00:42:37.118Z,97506.69
2023-05-08T00:44:46.047Z,97508.66
2023-05-08T00:46:54.373Z,97511.19
2023-05-08T00:49:02.486Z,97509.78
2023-05-08T00:51:14.253Z,97514.84
2023-05-08T00:53:24.730Z,97511.66
2023-05-08T00:55:32.932Z,97513.88
2023-05-08T00:57:41.835Z,97508.66
2023-05-08T00:59:51.849Z,97516.81
2023-05-08T01:02:00.236Z,97523.72
2023-05-08T01:04:09.101Z,97525.06
2023-05-08T01:06:19.911Z,97526.31
2023-05-08T01:08:28.481Z,97528.50
2023-05-08T01:11:01.209Z,97533.94
2023-05-08T01:13:17.310Z,97533.72
2023-05-08T01:15:32.497Z,97528.34
2023-05-08T01:17:54.697Z,97540.13
2023-05-08T01:20:13.535Z,97537.00
2023-05-08T01:22:41.291Z,97543.50
2023-05-08T01:25:20.886Z,97540.00
2023-05-08T01:27:50.714Z,97542.75
2023-05-08T01:30:22.199Z,97543.09
2023-05-08T01:32:39.356Z,97549.53
2023-05-08T01:34:55.047Z,97551.50
2023-05-08T01:37:06.261Z,97553.56
2023-05-08T01:39:22.074Z,97550.50
2023-05-08T01:41:32.533Z,97545.44
2023-05-08T01:43:47.961Z,97548.69
2023-05-08T01:45:58.810Z,97557.81
2023-05-08T01:48:13.716Z,97561.13
2023-05-08T01:50:28.937Z,97554.44
2023-05-08T01:52:43.267Z,97565.94
2023-05-08T01:55:00.539Z,97558.38
2023-05-08T01:57:12.438Z,97549.88
2023-05-08T01:59:25.233Z,97556.44
2023-05-08T02:01:37.724Z,97556.31
2023-05-08T02:03:49.853Z,97548.16
2023-05-08T02:05:59.633Z,97554.97
2023-05-08T02:08:10.257Z,97549.00
2023-05-08T02:10:19.477Z,97549.56
2023-05-08T02:12:31.462Z,97553.09
2023-05-08T02:14:43.100Z,97555.00
2023-05-08T02:16:53.657Z,97565.25
2023-05-08T02:19:06.612Z,97563.22
2023-05-08T02:21:17.558Z,97564.56
2023-05-08T02:23:28.592Z,97568.34
2023-05-08T02:25:38.245Z,97558.47
2023-05-08T02:27:48.454Z,97566.97
2023-05-08T02:29:57.706Z,97566.13
2023-05-08T02:32:07.805Z,97566.25
2023-05-08T02:34:19.934Z,97565.53
2023-05-08T02:36:30.019Z,97572.69
2023-05-08T02:38:44.543Z,97571.47
2023-05-08T02:40:58.505Z,97569.41
2023-05-08T02:43:07.715Z,97571.56
2023-05-08T02:45:16.906Z,97576.53
2023-05-08T02:47:33.340Z,97571.81
2023-05-08T02:49:52.092Z,97573.31
2023-05-08T02:52:07.774Z,97566.25
2023-05-08T02:54:24.773Z,97567.09
2023-05-08T02:56:39.233Z,97567.25
2023-05-08T02:58:55.931Z,97566.41
2023-05-08T03:01:08.824Z,97569.97
2023-05-08T03:03:30.409Z,97566.59
2023-05-08T03:05:42.652Z,97553.94
2023-05-08T03:07:54.148Z,97556.22
2023-05-08T03:10:09.557Z,97555.91
2023-05-08T03:12:20.003Z,97569.59
2023-05-08T03:14:31.918Z,97566.59
2023-05-08T03:16:42.875Z,97563.25
2023-05-08T03:19:05.113Z,97564.94
2023-05-08T03:21:21.129Z,97556.66
2023-05-08T03:23:32.332Z,97551.81
2023-05-08T03:25:43.116Z,97552.66
2023-05-08T03:27:55.313Z,97555.94
2023-05-08T03:30:05.806Z,97553.28
2023-05-08T03:32:17.187Z,97556.66
2023-05-08T03:34:27.508Z,97558.47
2023-05-08T03:36:38.804Z,97564.19
2023-05-08T03:38:47.488Z,97560.16
2023-05-08T03:40:56.240Z,97560.56
2023-05-08T03:43:04.785Z,97558.47
2023-05-08T03:45:14.382Z,97558.75
2023-05-08T03:47:24.538Z,97560.56
2023-05-08T03:49:33.868Z,97564.69
2023-05-08T03:51:46.429Z,97561.75
2023-05-08T03:53:55.717Z,97562.47
2023-05-08T03:56:05.495Z,97567.25
2023-05-08T03:58:22.873Z,97568.19
2023-05-08T04:00:40.605Z,97567.25
2023-05-08T04:02:59.292Z,97567.09
2023-05-08T04:05:19.031Z,97567.97
2023-05-08T04:07:34.924Z,97572.69
2023-05-08T04:09:48.938Z,97572.47
2023-05-08T04:12:05.442Z,97574.91
2023-05-08T04:14:19.680Z,97577.16
2023-05-08T04:16:31.210Z,97582.50
2023-05-08T04:18:41.326Z,97581.44
2023-05-08T04:20:51.601Z,97595.78
2023-05-08T04:23:02.746Z,97589.69
2023-05-08T04:25:14.239Z,97584.13
2023-05-08T04:27:24.025Z,97595.56
2023-05-08T04:29:36.237Z,97597.28
2023-05-08T04:31:45.586Z,97596.66
2023-05-08T04:33:54.021Z,97591.78
2023-05-08T04:36:04.532Z,97591.03
2023-05-08T04:38:16.331Z,97595.41
2023-05-08T04:40:25.433Z,97591.00
2023-05-08T04:42:36.703Z,97596.13
2023-05-08T04:44:45.614Z,97596.59
2023-05-08T04:46:53.906Z,97604.81
2023-05-08T04:49:02.217Z,97610.75
2023-05-08T04:51:12.061Z,97618.78
2023-05-08T04:53:22.945Z,97621.94
2023-05-08T04:55:31.020Z,97619.94
2023-05-08T04:57:39.962Z,97629.53
2023-05-08T04:59:49.145Z,97633.72
2023-05-08T05:01:57.119Z,97637.09
2023-05-08T05:04:05.545Z,97634.81
2023-05-08T05:06:13.550Z,97637.16
2023-05-08T05:08:24.432Z,97637.66
2023-05-08T05:10:32.505Z,97629.97
2023-05-08T05:12:41.317Z,97630.44
2023-05-08T05:14:49.320Z,97628.00
2023-05-08T05:16:57.289Z,97632.03
2023-05-08T05:19:05.320Z,97632.28
2023-05-08T05:21:14.351Z,97626.06
2023-05-08T05:23:25.148Z,97627.19
2023-05-08T05:25:33.250Z,97622.22
2023-05-08T05:27:41.393Z,97623.53
2023-05-08T05:29:50.299Z,97617.69
2023-05-08T05:31:58.669Z,97620.38
2023-05-08T05:34:09.757Z,97619.66
2023-05-08T05:36:18.124Z,97622.09
2023-05-08T05:38:28.799Z,97621.69
2023-05-08T05:40:39.852Z,97623.41
2023-05-08T05:42:52.752Z,97627.53
2023-05-08T05:45:02.133Z,97630.47
2023-05-08T05:47:12.580Z,97622.94
2023-05-08T05:49:22.194Z,97628.16
2023-05-08T05:51:30.544Z,97636.28
2023-05-08T05:53:42.037Z,97631.31
2023-05-08T05:55:49.913Z,97636.41
2023-05-08T05:57:58.474Z,97637.53
2023-05-08T06:00:08.425Z,97638.63
2023-05-08T06:02:22.169Z,97642.25
2023-05-08T06:04:30.452Z,97644.69
2023-05-08T06:06:38.593Z,97653.31
2023-05-08T06:08:49.810Z,97656.97
2023-05-08T06:10:57.744Z,97660.00
2023-05-08T06:13:06.699Z,97648.56
2023-05-08T06:15:16.826Z,97650.66
2023-05-08T06:17:27.605Z,97654.06
2023-05-08T06:19:36.872Z,97646.41
2023-05-08T06:21:44.913Z,97648.81
2023-05-08T06:23:55.658Z,97652.22
2023-05-08T06:26:03.662Z,97648.94
2023-05-08T06:28:11.768Z,97647.97
2023-05-08T06:30:19.878Z,97649.16
2023-05-08T06:32:27.897Z,97651.09
2023-05-08T06:34:36.444Z,97655.81
2023-05-08T06:36:44.483Z,97656.03
2023-05-08T06:38:52.432Z,97660.41
2023-05-08T06:41:03.283Z,97677.22
2023-05-08T06:43:11.122Z,97684.22
2023-05-08T06:45:19.298Z,97693.56
2023-05-08T06:47:27.193Z,97709.84
2023-05-08T06:49:35.300Z,97729.19
2023-05-08T06:51:43.233Z,97737.69
2023-05-08T06:53:51.470Z,97757.03
2023-05-08T06:56:04.020Z,97765.50
2023-05-08T06:58:12.697Z,97777.19
2023-05-08T07:00:20.900Z,97790.69
2023-05-08T07:02:29.377Z,97805.19
2023-05-08T07:04:37.316Z,97812.47
2023-05-08T07:06:45.524Z,97820.00
2023-05-08T07:08:53.564Z,97818.94
2023-05-08T07:11:04.185Z,97827.31
2023-05-08T07:13:13.575Z,97823.69
2023-05-08T07:15:26.452Z,97824.78
2023-05-08T07:17:37.156Z,97812.75
2023-05-08T07:19:45.261Z,97827.69
2023-05-08T07:21:53.262Z,97824.28
2023-05-08T07:24:01.730Z,97838.00
2023-05-08T07:26:12.913Z,97844.78
2023-05-08T07:28:21.039Z,97851.88
2023-05-08T07:30:29.020Z,97866.53
2023-05-08T07:32:38.745Z,97869.13
2023-05-08T07:34:49.007Z,97871.63
2023-05-08T07:36:57.326Z,97862.16
2023-05-08T07:39:05.564Z,97861.72
2023-05-08T07:41:16.411Z,97864.97
2023-05-08T07:43:24.904Z,97873.63
2023-05-08T07:45:32.897Z,97882.19
2023-05-08T07:47:42.667Z,97886.28
2023-05-08T07:49:50.551Z,97885.91
2023-05-08T07:51:58.579Z,97887.72
2023-05-08T07:54:06.491Z,97884.78
2023-05-08T07:56:18.634Z,97874.66
2023-05-08T07:58:27.079Z,97882.31
2023-05-08T08:00:35.164Z,97887.25
2023-05-08T08:02:43.860Z,97896.22
2023-05-08T08:04:52.542Z,97911.03
2023-05-08T08:07:00.815Z,97907.53
2023-05-08T08:09:08.997Z,97897.16
2023-05-08T08:11:19.934Z,97887.41
2023-05-08T08:13:27.980Z,97894.34
2023-05-08T08:15:36.237Z,97890.72
2023-05-08T08:17:44.349Z,97884.69
2023-05-08T08:19:52.760Z,97893.75
2023-05-08T08:22:00.693Z,97887.59
2023-05-08T08:24:09.006Z,97884.69
2023-05-08T08:26:19.489Z,97891.03
2023-05-08T08:28:27.455Z,97894.19
2023-05-08T08:30:35.392Z,97908.97
2023-05-08T08:32:43.537Z,97903.22
2023-05-08T08:34:51.530Z,97915.56
2023-05-08T08:36:59.505Z,97914.97
2023-05-08T08:39:10.420Z,97909.84
2023-05-08T08:41:22.470Z,97915.91
2023-05-08T08:43:30.432Z,97926.53
2023-05-08T08:45:39.160Z,97923.69
2023-05-08T08:47:48.423Z,97916.50
2023-05-08T08:49:57.895Z,97924.66
2023-05-08T08:52:10.114Z,97931.59
2023-05-08T08:54:27.065Z,97941.16
2023-05-08T08:56:43.105Z,97944.06
2023-05-08T08:58:59.505Z,97939.84
2023-05-08T09:01:10.954Z,97938.00
2023-05-08T09:03:19.088Z,97940.38
2023-05-08T09:05:27.014Z,97947.53
2023-05-08T09:07:35.654Z,97955.22
2023-05-08T09:09:45.655Z,97957.00
2023-05-08T09:11:56.911Z,97949.91
2023-05-08T09:14:06.656Z,97941.19
2023-05-08T09:16:15.142Z,97951.59
2023-05-08T09:18:23.063Z,97955.22
2023-05-08T09:20:32.907Z,97960.25
2023-05-08T09:22:41.774Z,97958.69
2023-05-08T09:25:00.797Z,97961.91
2023-05-08T09:27:23.906Z,97960.44
2023-05-08T09:29:31.848Z,97951.72
2023-05-08T09:31:40.819Z,97946.97
2023-05-08T09:33:48.916Z,97935.00
2023-05-08T09:35:57.771Z,97938.78
2023-05-08T09:38:05.811Z,97939.59
2023-05-08T09:40:18.494Z,97944.22
2023-05-08T09:42:40.955Z,97941.84
2023-05-08T09:44:50.498Z,97942.53
2023-05-08T09:47:14.361Z,97943.31
2023-05-08T09:49:23.028Z,97954.72
2023-05-08T09:51:32.278Z,97963.16
2023-05-08T09:53:43.561Z,97950.91
2023-05-08T09:55:51.578Z,97955.69
2023-05-08T09:58:03.593Z,97960.53
2023-05-08T10:00:17.153Z,97968.25
2023-05-08T10:02:25.286Z,97966.34
2023-05-08T10:04:36.452Z,97965.63
2023-05-08T10:06:44.606Z,97966.69
2023-05-08T10:08:52.568Z,97965.66
2023-05-08T10:11:17.355Z,97961.38
2023-05-08T10:13:28.119Z,97954.25
2023-05-08T10:15:40.775Z,97959.00
2023-05-08T10:17:57.160Z,97962.69
2023-05-08T10:20:10.831Z,97966.50
2023-05-08T10:22:20.412Z,97969.97
2023-05-08T10:24:31.258Z,97970.97
2023-05-08T10:26:50.740Z,97969.84
2023-05-08T10:29:20.831Z,97974.97
2023-05-08T10:31:31.961Z,97978.47
2023-05-08T10:33:44.397Z,97963.47
2023-05-08T10:35:52.532Z,97974.13
2023-05-08T10:38:01.616Z,97980.75
2023-05-08T10:40:11.712Z,97977.63
2023-05-08T10:42:20.584Z,97980.91
2023-05-08T10:44:32.589Z,97983.88
2023-05-08T10:46:49.657Z,97977.97
2023-05-08T10:49:07.982Z,97984.31
2023-05-08T10:51:25.073Z,97986.31
2023-05-08T10:53:41.849Z,97983.44
2023-05-08T10:55:53.686Z,97972.91
2023-05-08T10:58:12.719Z,97972.91
2023-05-08T11:00:25.514Z,97967.72
2023-05-08T11:02:37.218Z,97967.81
2023-05-08T11:04:45.582Z,97973.59
2023-05-08T11:06:54.580Z,97975.69
2023-05-08T11:09:02.546Z,97974.31
2023-05-08T11:11:17.406Z,97966.88
2023-05-08T11:13:31.730Z,97969.53
2023-05-08T11:15:43.562Z,97968.19
2023-05-08T11:17:57.491Z,97965.56
2023-05-08T11:20:07.554Z,97964.69
2023-05-08T11:22:38.593Z,97969.03
2023-05-08T11:24:56.816Z,97973.97
2023-05-08T11:27:05.312Z,97967.41
2023-05-08T11:29:20.373Z,97963.59
2023-05-08T11:31:54.449Z,97970.44
2023-05-08T11:34:02.531Z,97965.09
2023-05-08T11:36:17.662Z,97956.94
2023-05-08T11:38:36.266Z,97957.63
2023-05-08T11:40:53.341Z,97958.81
2023-05-08T11:43:02.705Z,97962.25
2023-05-08T11:45:12.621Z,97955.97
2023-05-08T11:47:26.087Z,97961.56
2023-05-08T11:49:34.025Z,97953.72
2023-05-08T11:51:45.164Z,97957.88
2023-05-08T11:53:54.307Z,97944.78
2023-05-08T11:56:03.149Z,97940.81
2023-05-08T11:58:15.758Z,97947.19
2023-05-08T12:00:25.469Z,97950.31
2023-05-08T12:02:46.118Z,97956.84
2023-05-08T12:04:54.754Z,97962.50
2023-05-08T12:07:03.142Z,97962.25
2023-05-08T12:09:16.676Z,97954.25
2023-05-08T12:11:28.401Z,97950.69
2023-05-08T12:13:36.468Z,97950.38
2023-05-08T12:15:44.714Z,97948.28
2023-05-08T12:18:04.800Z,97947.50
2023-05-08T12:20:15.564Z,97945.94
2023-05-08T12:22:25.034Z,97950.56
2023-05-08T12:24:34.352Z,97952.59
2023-05-08T12:26:42.297Z,97952.72
2023-05-08T12:28:51.288Z,97947.81
2023-05-08T12:30:59.590Z,97946.19
2023-05-08T12:33:10.654Z,97947.63
2023-05-08T12:35:19.448Z,97946.16
2023-05-08T12:37:29.844Z,97946.88
2023-05-08T12:39:40.504Z,97947.75
2023-05-08T12:41:51.961Z,97945.00
2023-05-08T12:43:59.988Z,97955.03
2023-05-08T12:46:08.269Z,97948.50
2023-05-08T12:48:18.938Z,97948.84
2023-05-08T12:50:27.307Z,97946.34
2023-05-08T12:52:35.208Z,97947.88
2023-05-08T12:54:44.606Z,97943.78
2023-05-08T12:56:53.245Z,97942.38
2023-05-08T12:59:02.606Z,97937.88
2023-05-08T13:01:13.768Z,97942.81
2023-05-08T13:03:29.944Z,97948.84
2023-05-08T13:05:39.919Z,97953.03
2023-05-08T13:07:47.891Z,97944.91
2023-05-08T13:10:00.382Z,97947.19
2023-05-08T13:12:09.830Z,97942.94
2023-05-08T13:14:18.274Z,97929.47
2023-05-08T13:16:26.460Z,97931.28
2023-05-08T13:18:37.640Z,97921.41
2023-05-08T13:20:46.538Z,97929.63
2023-05-08T13:22:54.542Z,97926.22
2023-05-08T13:25:02.460Z,97923.50
2023-05-08T13:27:10.434Z,97928.91
2023-05-08T13:29:19.016Z,97932.44
2023-05-08T13:31:27.497Z,97941.06
2023-05-08T13:33:38.626Z,97940.44
2023-05-08T13:35:46.937Z,97934.25
2023-05-08T13:37:55.073Z,97933.47
2023-05-08T13:40:03.651Z,97930.59
2023-05-08T13:42:11.876Z,97921.25
2023-05-08T13:44:19.865Z,97924.53
2023-05-08T13:46:28.221Z,97923.38
2023-05-08T13:48:39.037Z,97927.19
2023-05-08T13:50:47.017Z,97915.31
2023-05-08T13:52:55.382Z,97907.78
2023-05-08T13:55:03.456Z,97902.97
2023-05-08T13:57:11.732Z,97898.03
2023-05-08T13:59:19.785Z,97902.16
2023-05-08T14:01:28.086Z,97898.41
2023-05-08T14:03:38.856Z,97905.94
2023-05-08T14:05:46.826Z,97905.22
2023-05-08T14:07:54.877Z,97909.13
2023-05-08T14:10:03.365Z,97901.09
2023-05-08T14:12:11.603Z,97908.63
2023-05-08T14:14:19.485Z,97899.13
2023-05-08T14:16:27.546Z,97899.28
2023-05-08T14:18:38.175Z,97899.63
2023-05-08T14:20:51.644Z,97906.03
2023-05-08T14:23:04.712Z,97902.47
2023-05-08T14:25:13.798Z,97907.50
2023-05-08T14:27:22.069Z,97916.66
2023-05-08T14:29:30.169Z,97910.56
2023-05-08T14:31:38.276Z,97898.50
2023-05-08T14:33:48.988Z,97899.78
2023-05-08T14:35:56.988Z,97900.97
2023-05-08T14:38:05.074Z,97899.41
2023-05-08T14:40:13.307Z,97904.56
2023-05-08T14:42:23.620Z,97897.59
2023-05-08T14:44:31.915Z,97895.97
2023-05-08T14:46:40.118Z,97904.84
2023-05-08T14:48:50.745Z,97897.91
2023-05-08T14:50:59.921Z,97905.41
2023-05-08T14:53:08.218Z,97907.59
2023-05-08T14:55:21.065Z,97910.41
2023-05-08T14:57:29.238Z,97907.44
2023-05-08T14:59:38.616Z,97896.66
2023-05-08T15:01:49.763Z,97897.09
2023-05-08T15:04:00.687Z,97914.13
2023-05-08T15:06:10.067Z,97900.25
2023-05-08T15:08:18.300Z,97899.97
2023-05-08T15:10:26.576Z,97903.28
2023-05-08T15:12:34.462Z,97902.56
2023-05-08T15:14:42.453Z,97899.31
2023-05-08T15:16:50.793Z,97895.91
2023-05-08T15:19:01.749Z,97893.91
2023-05-08T15:21:09.619Z,97887.84
2023-05-08T15:23:20.539Z,97900.59
2023-05-08T15:25:28.720Z,97893.81
2023-05-08T15:27:36.645Z,97891.81
2023-05-08T15:29:44.879Z,97890.13
2023-05-08T15:31:52.867Z,97891.97
2023-05-08T15:34:03.483Z,97901.13
2023-05-08T15:36:11.714Z,97897.19
2023-05-08T15:38:20.091Z,97897.75
2023-05-08T15:40:27.992Z,97892.94
2023-05-08T15:42:36.453Z,97890.81
2023-05-08T15:44:54.719Z,97896.72
2023-05-08T15:47:03.236Z,97897.38
2023-05-08T15:49:13.775Z,97893.13
2023-05-08T15:51:21.859Z,97894.41
2023-05-08T15:53:29.943Z,97904.25
2023-05-08T15:55:37.821Z,97900.31
2023-05-08T15:57:45.748Z,97893.81
2023-05-08T15:59:53.701Z,97894.34
2023-05-08T16:02:01.871Z,97901.56
2023-05-08T16:04:10.001Z,97893.81
2023-05-08T16:06:20.828Z,97901.56
2023-05-08T16:08:29.617Z,97902.88
2023-05-08T16:10:37.659Z,97900.88
2023-05-08T16:12:45.677Z,97904.13
2023-05-08T16:14:53.671Z,97901.28
2023-05-08T16:17:01.796Z,97905.09
2023-05-08T16:19:09.748Z,97900.00
2023-05-08T16:21:20.513Z,97905.28
2023-05-08T16:23:28.646Z,97904.09
2023-05-08T16:25:37.116Z,97911.34
2023-05-08T16:27:45.188Z,97903.56
2023-05-08T16:29:53.108Z,97909.78
2023-05-08T16:32:01.079Z,97904.13
2023-05-08T16:34:09.038Z,97908.66
2023-05-08T16:36:17.004Z,97905.41
2023-05-08T16:38:27.604Z,97909.94
2023-05-08T16:40:36.069Z,97901.03
2023-05-08T16:42:44.167Z,97916.59
2023-05-08T16:44:52.249Z,97915.88
2023-05-08T16:47:00.175Z,97912.34
2023-05-08T16:49:08.116Z,97910.50
2023-05-08T16:51:16.387Z,97910.06
2023-05-08T16:53:27.305Z,97907.38
2023-05-08T16:55:37.849Z,97902.44
2023-05-08T16:57:45.754Z,97911.19
2023-05-08T16:59:53.817Z,97902.72
2023-05-08T17:02:01.915Z,97908.22
2023-05-08T17:04:10.310Z,97911.88
2023-05-08T17:06:18.376Z,97906.50
2023-05-08T17:08:26.345Z,97909.75
2023-05-08T17:10:34.757Z,97913.00
2023-05-08T17:12:45.634Z,97910.53
2023-05-08T17:14:53.882Z,97920.44
2023-05-08T17:17:01.894Z,97913.97
2023-05-08T17:19:09.829Z,97921.56
2023-05-08T17:21:17.929Z,97918.44
2023-05-08T17:23:25.858Z,97921.28
2023-05-08T17:25:33.750Z,97921.22
2023-05-08T17:27:41.744Z,97922.44
2023-05-08T17:29:52.465Z,97919.31
2023-05-08T17:32:00.445Z,97929.00
2023-05-08T17:34:08.686Z,97926.25
2023-05-08T17:36:16.837Z,97926.66
2023-05-08T17:38:24.915Z,97924.44
2023-05-08T17:40:33.272Z,97929.25
2023-05-08T17:42:41.373Z,97932.63
2023-05-08T17:44:52.547Z,97935.75
2023-05-08T17:47:00.728Z,97928.25
2023-05-08T17:49:08.730Z,97931.56
2023-05-08T17:51:17.381Z,97924.13
2023-05-08T17:53:25.564Z,97933.41
2023-05-08T17:55:34.880Z,97936.69
2023-05-08T17:57:42.894Z,97935.13
2023-05-08T17:59:53.773Z,97936.94
2023-05-08T18:02:01.718Z,97936.84
2023-05-08T18:04:09.896Z,97940.31
2023-05-08T18:06:18.569Z,97936.19
2023-05-08T18:08:26.720Z,97940.94
2023-05-08T18:10:35.187Z,97933.03
2023-05-08T18:12:43.455Z,97937.84
2023-05-08T18:14:53.995Z,97934.22
2023-05-08T18:17:02.080Z,97938.69
2023-05-08T18:19:10.030Z,97924.69
2023-05-08T18:21:18.116Z,97937.34
2023-05-08T18:23:26.055Z,97929.22
2023-05-08T18:25:34.262Z,97932.91
2023-05-08T18:27:42.990Z,97931.47
2023-05-08T18:29:53.743Z,97936.56
2023-05-08T18:32:01.688Z,97941.78
2023-05-08T18:34:09.758Z,97939.53
2023-05-08T18:36:17.992Z,97931.06
2023-05-08T18:38:26.036Z,97938.06
2023-05-08T18:40:34.160Z,97940.53
2023-05-08T18:42:42.156Z,97931.44
2023-05-08T18:44:50.172Z,97930.69
2023-05-08T18:47:01.597Z,97932.53
2023-05-08T18:49:09.571Z,97933.88
2023-05-08T18:51:17.727Z,97929.75
2023-05-08T18:53:25.789Z,97924.16
2023-05-08T18:55:33.951Z,97924.16
2023-05-08T18:57:41.872Z,97922.81
2023-05-08T18:59:51.808Z,97925.88
2023-05-08T19:02:03.138Z,97921.59
2023-05-08T19:04:11.250Z,97927.94
2023-05-08T19:06:19.641Z,97931.38
2023-05-08T19:08:27.903Z,97923.47
2023-05-08T19:10:37.527Z,97928.31
2023-05-08T19:12:45.803Z,97930.53
2023-05-08T19:14:55.469Z,97932.84
2023-05-08T19:17:06.084Z,97935.75
2023-05-08T19:19:14.197Z,97933.59
2023-05-08T19:21:22.786Z,97931.28
2023-05-08T19:23:30.696Z,97934.94
2023-05-08T19:25:38.919Z,97940.66
2023-05-08T19:27:47.344Z,97934.81
2023-05-08T19:29:55.455Z,97936.50
2023-05-08T19:32:06.275Z,97940.88
2023-05-08T19:34:16.406Z,97926.16
2023-05-08T19:36:24.424Z,97933.72
2023-05-08T19:38:32.487Z,97929.00
2023-05-08T19:40:52.435Z,97931.06
2023-05-08T19:43:05.028Z,97929.34
2023-05-08T19:45:16.393Z,97927.25
2023-05-08T19:47:28.436Z,97923.09
2023-05-08T19:49:43.868Z,97923.84
2023-05-08T19:51:51.938Z,97928.84
2023-05-08T19:53:59.875Z,97920.06
2023-05-08T19:56:09.139Z,97928.09
2023-05-08T19:58:17.669Z,97925.44
2023-05-08T20:00:28.815Z,97930.28
2023-05-08T20:02:39.540Z,97925.31
2023-05-08T20:05:14.460Z,97921.28
2023-05-08T20:07:18.780Z,97928.25
2023-05-08T20:09:29.352Z,97919.94
2023-05-08T20:11:37.310Z,97918.88
2023-05-08T20:13:45.476Z,97917.88
2023-05-08T20:15:54.333Z,97910.09
2023-05-08T20:18:05.291Z,97913.75
2023-05-08T20:20:15.019Z,97923.72
2023-05-08T20:22:25.411Z,97912.41
2023-05-08T20:24:33.398Z,97917.63
2023-05-08T20:26:41.557Z,97918.47
2023-05-08T20:28:49.808Z,97923.97
2023-05-08T20:31:00.415Z,97916.41
2023-05-08T20:33:11.011Z,97919.94
2023-05-08T20:35:19.269Z,97910.09
2023-05-08T20:37:27.270Z,97913.47
2023-05-08T20:39:35.333Z,97915.22
2023-05-08T20:41:43.368Z,97913.13
2023-05-08T20:43:51.583Z,97911.78
2023-05-08T20:45:59.705Z,97909.25
2023-05-08T20:48:11.334Z,97908.63
2023-05-08T20:50:19.315Z,97904.47
2023-05-08T20:52:30.255Z,97905.94
2023-05-08T20:54:38.247Z,97904.00
2023-05-08T20:56:46.385Z,97901.19
2023-05-08T20:58:54.345Z,97904.59
2023-05-08T21:01:02.500Z,97897.06
2023-05-08T21:03:13.190Z,97903.25
2023-05-08T21:05:21.483Z,97896.22
2023-05-08T21:07:29.505Z,97891.84
2023-05-08T21:09:37.486Z,97890.13
2023-05-08T21:11:45.326Z,97897.28
2023-05-08T21:13:53.255Z,97889.38
2023-05-08T21:16:01.193Z,97884.88
2023-05-08T21:18:09.115Z,97885.00
2023-05-08T21:20:21.499Z,97886.50
2023-05-08T21:22:31.053Z,97896.06
2023-05-08T21:24:54.722Z,97896.06
2023-05-08T21:27:02.755Z,97889.38
2023-05-08T21:29:11.023Z,97883.31
2023-05-08T21:31:18.953Z,97874.81
2023-05-08T21:33:28.807Z,97882.22
2023-05-08T21:35:39.314Z,97872.97
2023-05-08T21:37:47.489Z,97875.88
2023-05-08T21:39:55.409Z,97872.84
2023-05-08T21:42:03.343Z,97871.00
2023-05-08T21:44:12.932Z,97867.63
2023-05-08T21:46:21.076Z,97886.00
2023-05-08T21:48:29.135Z,97875.16
2023-05-08T21:50:39.759Z,97888.53
2023-05-08T21:52:51.036Z,97885.59
2023-05-08T21:55:08.709Z,97877.09
2023-05-08T21:57:16.884Z,97877.94
2023-05-08T21:59:24.822Z,97878.19
2023-05-08T22:01:32.986Z,97865.56
2023-05-08T22:03:41.203Z,97870.06
2023-05-08T22:05:51.899Z,97873.34
2023-05-08T22:08:01.436Z,97879.03
2023-05-08T22:10:11.973Z,97876.63
2023-05-08T22:12:20.353Z,97876.72
2023-05-08T22:14:28.413Z,97867.75
2023-05-08T22:16:36.608Z,97872.22
2023-05-08T22:18:44.594Z,97873.19
2023-05-08T22:20:56.511Z,97863.34
2023-05-08T22:23:04.481Z,97867.75
2023-05-08T22:25:12.934Z,97866.88
2023-05-08T22:27:21.523Z,97873.09
2023-05-08T22:29:29.547Z,97867.63
2023-05-08T22:31:38.024Z,97868.13
2023-05-08T22:33:46.036Z,97870.78
2023-05-08T22:35:56.758Z,97872.72
2023-05-08T22:38:04.676Z,97882.22
2023-05-08T22:40:13.530Z,97880.16
2023-05-08T22:42:21.782Z,97876.28
2023-05-08T22:44:29.874Z,97878.94
2023-05-08T22:46:38.403Z,97876.00
2023-05-08T22:48:47.508Z,97862.91
2023-05-08T22:50:58.252Z,97863.88
2023-05-08T22:53:08.432Z,97861.44
2023-05-08T22:55:17.170Z,97861.06
2023-05-08T22:57:25.341Z,97855.72
2023-05-08T22:59:33.715Z,97856.56
2023-05-08T23:01:41.692Z,97861.91
2023-05-08T23:03:49.673Z,97858.38
2023-05-08T23:06:00.225Z,97854.13
2023-05-08T23:08:09.084Z,97842.94
2023-05-08T23:10:17.230Z,97832.59
2023-05-08T23:12:25.261Z,97824.91
2023-05-08T23:14:34.915Z,97815.56
2023-05-08T23:16:43.150Z,97810.59
2023-05-08T23:18:51.404Z,97818.00
2023-05-08T23:21:10.425Z,97804.13
2023-05-08T23:23:18.396Z,97801.78
2023-05-08T23:25:26.584Z,97798.63
2023-05-08T23:27:34.653Z,97801.66
2023-05-08T23:29:42.799Z,97801.16
2023-05-08T23:31:51.086Z,97796.63
2023-05-08T23:33:59.416Z,97786.88
2023-05-08T23:36:11.558Z,97779.72
2023-05-08T23:38:19.790Z,97777.38
2023-05-08T23:40:27.717Z,97767.03
2023-05-08T23:42:37.361Z,97761.06
2023-05-08T23:44:45.281Z,97758.88
2023-05-08T23:46:53.636Z,97755.13
2023-05-08T23:49:01.639Z,97765.47
2023-05-08T23:51:12.203Z,97754.16
2023-05-08T23:53:20.297Z,97759.63
2023-05-08T23:55:30.501Z,97771.16
2023-05-08T23:57:39.550Z,97768.50
2023-05-08T23:59:47.612Z,97772.47
